Time;durP1;ratioP1;P1;durP2;ratioP2;P2;SDS_P1;SDS_P2;PMS_P1;PMS_P2;Temp;Humidity;BMP_temperature;BMP_pressure;BME280_temperature;BME280_humidity;BME280_pressure;Samples;Min_cycle;Max_cycle;Signal;HPM_P1;HPM_P2
2021/12/28 00:00:12;;;;;;;7.68;6.10;;;22.20;34.40;;;;;;5071952;28;20486;-68
2021/12/28 00:02:39;;;;;;;7.40;6.22;;;22.20;34.40;;;;;;5072512;28;20423;-68
2021/12/28 00:05:06;;;;;;;7.63;6.30;;;22.20;34.40;;;;;;5072400;28;20829;-68
2021/12/28 00:07:32;;;;;;;9.00;6.30;;;22.20;34.40;;;;;;5072384;28;20388;-67
2021/12/28 00:09:58;;;;;;;7.53;5.80;;;22.20;34.40;;;;;;5072095;28;20468;-68
2021/12/28 00:12:23;;;;;;;7.93;6.25;;;22.20;34.40;;;;;;5072100;28;20474;-70
2021/12/28 00:15:05;;;;;;;8.30;7.07;;;22.20;34.40;;;;;;5072405;28;20403;-68
2021/12/28 00:20:15;;;;;;;8.00;6.15;;;22.20;34.40;;;;;;5069501;28;20430;-68
2021/12/28 00:22:41;;;;;;;7.28;5.70;;;22.20;34.40;;;;;;5051785;28;20869;-68
2021/12/28 00:25:06;;;;;;;8.35;6.43;;;22.20;34.40;;;;;;5053464;28;20400;-68
2021/12/28 00:27:32;;;;;;;7.27;6.17;;;22.20;34.40;;;;;;5052592;28;20393;-68
2021/12/28 00:29:58;;;;;;;7.47;5.90;;;22.20;34.40;;;;;;5052246;28;20397;-67
2021/12/28 00:32:24;;;;;;;8.15;6.40;;;22.20;34.40;;;;;;5051839;28;20390;-68
2021/12/28 00:34:49;;;;;;;8.17;6.17;;;22.20;34.50;;;;;;5052271;28;20943;-68
2021/12/28 00:37:15;;;;;;;7.15;6.13;;;22.10;34.40;;;;;;5052230;28;20383;-68
2021/12/28 00:39:41;;;;;;;7.57;6.37;;;22.10;34.40;;;;;;5051817;28;20437;-68
2021/12/28 00:42:08;;;;;;;7.20;6.07;;;22.10;34.40;;;;;;5051638;28;20862;-68
2021/12/28 00:44:34;;;;;;;6.72;5.90;;;22.10;34.40;;;;;;5051988;28;20402;-68
2021/12/28 00:47:00;;;;;;;7.65;6.10;;;22.10;34.50;;;;;;5051921;28;20463;-68
2021/12/28 00:49:25;;;;;;;7.27;6.40;;;22.10;34.50;;;;;;5051913;28;20862;-68
2021/12/28 00:51:51;;;;;;;6.57;5.88;;;22.10;34.50;;;;;;5052508;28;20389;-67
2021/12/28 00:54:17;;;;;;;7.70;6.68;;;22.10;34.50;;;;;;5050825;28;20389;-68
2021/12/28 00:56:43;;;;;;;7.15;5.95;;;22.10;34.50;;;;;;5051250;28;20398;-68
2021/12/28 00:59:09;;;;;;;7.18;5.90;;;22.10;34.50;;;;;;5033725;28;20812;-68
2021/12/28 01:01:34;;;;;;;7.90;6.30;;;22.10;34.50;;;;;;5052031;28;20483;-68
2021/12/28 01:04:00;;;;;;;7.33;6.20;;;22.10;34.50;;;;;;5051451;28;20393;-68
2021/12/28 01:06:26;;;;;;;7.47;6.10;;;22.10;34.50;;;;;;5033311;28;20436;-68
2021/12/28 01:08:51;;;;;;;6.90;5.60;;;22.10;34.50;;;;;;5051415;28;20393;-67
2021/12/28 01:11:17;;;;;;;7.85;6.18;;;22.10;34.50;;;;;;5052569;28;20485;-68
2021/12/28 01:13:43;;;;;;;7.70;6.53;;;22.10;34.50;;;;;;5051427;28;20527;-68
2021/12/28 01:16:08;;;;;;;8.07;5.90;;;22.00;34.40;;;;;;5051077;28;20438;-68
2021/12/28 01:18:34;;;;;;;8.23;6.30;;;22.00;34.40;;;;;;5051119;28;20390;-68
2021/12/28 01:21:00;;;;;;;8.30;6.18;;;22.00;34.40;;;;;;5033993;28;20443;-68
2021/12/28 01:23:26;;;;;;;7.80;6.13;;;22.00;34.40;;;;;;5051381;28;20396;-68
2021/12/28 01:25:52;;;;;;;7.33;5.80;;;22.00;34.40;;;;;;5033418;28;20550;-68
2021/12/28 01:28:17;;;;;;;7.47;6.13;;;22.00;34.40;;;;;;5050836;28;20881;-67
2021/12/28 01:30:45;;;;;;;7.55;6.22;;;22.00;34.40;;;;;;5052164;28;20436;-68
2021/12/28 01:33:10;;;;;;;8.95;6.20;;;22.00;34.40;;;;;;5033259;28;20467;-68
2021/12/28 01:35:36;;;;;;;7.30;6.07;;;22.00;34.40;;;;;;5051181;28;20393;-68
2021/12/28 01:38:03;;;;;;;7.00;5.90;;;22.00;34.40;;;;;;5051390;28;20417;-68
2021/12/28 01:40:33;;;;;;;7.93;5.90;;;22.00;34.40;;;;;;5054927;28;20773;-68
2021/12/28 01:43:03;;;;;;;6.77;5.87;;;22.00;34.40;;;;;;5054915;28;20898;-68
2021/12/28 01:45:35;;;;;;;7.38;5.97;;;22.00;34.50;;;;;;5055182;28;20393;-68
2021/12/28 01:48:02;;;;;;;8.23;6.25;;;21.90;34.40;;;;;;5054999;28;20861;-67
2021/12/28 01:50:27;;;;;;;7.10;6.00;;;22.00;34.50;;;;;;5053347;28;20901;-68
2021/12/28 01:52:53;;;;;;;7.85;6.63;;;21.90;34.40;;;;;;5037037;28;20460;-67
2021/12/28 01:55:19;;;;;;;8.70;6.32;;;22.00;34.50;;;;;;5053621;28;20405;-67
2021/12/28 01:57:45;;;;;;;7.87;6.37;;;22.00;34.50;;;;;;5053665;28;20427;-68
2021/12/28 02:00:12;;;;;;;7.80;6.40;;;21.90;34.40;;;;;;5053089;28;20401;-67
2021/12/28 02:02:37;;;;;;;7.57;6.38;;;22.00;34.50;;;;;;5053473;28;20385;-68
2021/12/28 02:05:03;;;;;;;7.10;6.07;;;21.90;34.40;;;;;;5054789;28;20718;-67
2021/12/28 02:07:29;;;;;;;7.32;5.97;;;21.90;34.40;;;;;;5053502;28;20444;-68
2021/12/28 02:09:55;;;;;;;7.63;6.18;;;21.90;34.40;;;;;;5054166;28;20396;-68
2021/12/28 02:12:21;;;;;;;7.47;6.13;;;21.90;34.40;;;;;;5053723;28;20386;-68
2021/12/28 02:14:47;;;;;;;7.13;6.10;;;21.90;34.40;;;;;;5053213;28;20551;-68
2021/12/28 02:17:14;;;;;;;7.18;6.18;;;21.90;34.40;;;;;;5054537;28;20476;-68
2021/12/28 02:19:40;;;;;;;7.33;5.90;;;21.90;34.50;;;;;;5054485;28;20479;-68
2021/12/28 02:22:07;;;;;;;8.52;6.15;;;21.90;34.40;;;;;;5054001;28;20869;-70
2021/12/28 02:24:33;;;;;;;7.38;5.50;;;21.80;34.30;;;;;;5036231;28;20475;-68
2021/12/28 02:26:59;;;;;;;7.43;5.93;;;21.80;34.30;;;;;;5054416;28;20385;-68
2021/12/28 02:29:25;;;;;;;7.20;5.78;;;21.80;34.40;;;;;;5054882;28;20535;-68
2021/12/28 02:31:55;;;;;;;7.43;6.13;;;21.90;34.40;;;;;;5054371;28;20900;-68
2021/12/28 02:34:23;;;;;;;8.80;5.95;;;21.80;34.40;;;;;;5053911;28;20472;-68
2021/12/28 02:36:49;;;;;;;7.03;5.90;;;21.80;34.40;;;;;;5054149;28;20749;-68
2021/12/28 02:39:15;;;;;;;7.35;6.30;;;21.80;34.40;;;;;;5054099;28;20489;-68
2021/12/28 02:41:41;;;;;;;7.50;6.10;;;21.80;34.40;;;;;;5035793;28;20504;-68
2021/12/28 02:44:07;;;;;;;7.30;5.60;;;21.80;34.40;;;;;;5053567;28;20413;-67
2021/12/28 02:46:33;;;;;;;6.65;5.70;;;21.80;34.40;;;;;;5053796;28;20432;-68
2021/12/28 02:48:59;;;;;;;6.82;5.78;;;21.80;34.40;;;;;;5053963;28;20417;-68
2021/12/28 02:51:25;;;;;;;7.30;6.10;;;21.80;35.00;;;;;;5036126;28;20381;-68
2021/12/28 02:53:50;;;;;;;7.50;6.18;;;21.80;34.30;;;;;;5052954;28;20462;-68
2021/12/28 02:56:18;;;;;;;6.97;6.07;;;21.80;34.30;;;;;;5054224;28;20389;-68
2021/12/28 02:58:51;;;;;;;7.70;6.03;;;21.80;34.30;;;;;;5053954;28;20807;-68
2021/12/28 03:01:27;;;;;;;7.18;5.65;;;21.80;34.40;;;;;;5054259;28;20425;-67
2021/12/28 03:03:58;;;;;;;6.82;5.90;;;21.80;34.70;;;;;;5035716;28;20385;-67
2021/12/28 03:06:24;;;;;;;6.57;5.73;;;21.80;34.40;;;;;;5035781;28;20444;-69
2021/12/28 03:08:53;;;;;;;7.10;5.70;;;21.80;34.40;;;;;;5052352;28;20425;-68
2021/12/28 03:11:20;;;;;;;6.90;5.22;;;21.80;34.40;;;;;;5053529;28;20451;-68
2021/12/28 03:13:48;;;;;;;7.07;6.00;;;21.70;34.40;;;;;;5053531;28;20389;-68
2021/12/28 03:16:16;;;;;;;8.13;5.90;;;21.80;34.50;;;;;;5035223;28;20413;-68
2021/12/28 03:18:41;;;;;;;7.20;5.77;;;21.70;35.00;;;;;;5052029;28;20386;-68
2021/12/28 03:21:09;;;;;;;8.02;5.47;;;21.70;34.40;;;;;;5053248;28;20493;-68
2021/12/28 03:23:35;;;;;;;7.10;5.80;;;21.80;34.50;;;;;;5053334;28;20904;-69
2021/12/28 03:26:02;;;;;;;6.60;5.57;;;21.70;34.40;;;;;;5053224;28;20400;-68
2021/12/28 03:28:34;;;;;;;7.00;5.57;;;21.70;34.40;;;;;;5051034;28;20988;-68
2021/12/28 03:31:02;;;;;;;7.05;5.78;;;21.70;34.50;;;;;;5053112;28;20458;-68
2021/12/28 03:33:30;;;;;;;6.37;5.20;;;21.70;34.40;;;;;;5053147;28;20393;-68
2021/12/28 03:35:56;;;;;;;6.20;5.18;;;21.70;34.40;;;;;;5053585;28;20381;-68
2021/12/28 03:38:23;;;;;;;6.30;5.45;;;21.70;34.40;;;;;;5051561;28;20481;-68
2021/12/28 03:40:49;;;;;;;6.75;5.45;;;21.70;34.40;;;;;;5052965;28;20447;-67
2021/12/28 03:43:15;;;;;;;6.55;5.22;;;21.70;34.40;;;;;;5051462;28;20416;-68
2021/12/28 03:45:41;;;;;;;6.43;4.90;;;21.70;34.40;;;;;;5035063;28;20421;-68
2021/12/28 03:48:06;;;;;;;6.55;5.10;;;21.70;34.50;;;;;;5052532;28;20467;-67
2021/12/28 03:50:34;;;;;;;6.10;4.90;;;21.70;34.40;;;;;;5052600;28;20766;-68
2021/12/28 03:53:00;;;;;;;6.07;5.00;;;21.70;34.40;;;;;;5034875;28;20795;-67
2021/12/28 03:55:27;;;;;;;5.75;5.00;;;21.70;34.40;;;;;;5034952;28;20484;-67
2021/12/28 03:57:55;;;;;;;6.32;4.90;;;21.70;34.30;;;;;;5034712;28;20403;-67
2021/12/28 04:00:22;;;;;;;5.82;4.78;;;21.70;34.40;;;;;;5052020;28;20890;-67
2021/12/28 04:02:48;;;;;;;5.35;4.70;;;21.70;34.40;;;;;;5034222;28;20402;-68
2021/12/28 04:05:16;;;;;;;5.45;4.75;;;21.70;34.40;;;;;;5034763;28;20758;-68
2021/12/28 04:07:43;;;;;;;5.68;4.55;;;21.70;34.40;;;;;;5052490;28;20397;-68
2021/12/28 04:10:10;;;;;;;6.00;4.90;;;21.60;34.40;;;;;;5052445;28;20878;-69
2021/12/28 04:12:37;;;;;;;5.45;4.35;;;21.60;34.40;;;;;;5052382;28;20400;-68
2021/12/28 04:15:04;;;;;;;5.78;4.75;;;21.60;34.40;;;;;;5034463;28;20394;-68
2021/12/28 04:17:31;;;;;;;6.28;4.55;;;21.60;34.40;;;;;;5052338;28;20385;-68
2021/12/28 04:19:57;;;;;;;5.65;4.70;;;21.60;34.30;;;;;;5052172;28;20845;-68
2021/12/28 04:22:23;;;;;;;5.05;4.32;;;21.60;34.40;;;;;;5051864;28;20892;-68
2021/12/28 04:24:49;;;;;;;5.53;4.43;;;21.60;34.40;;;;;;5034347;28;20389;-68
2021/12/28 04:27:15;;;;;;;5.35;4.38;;;21.60;34.40;;;;;;5050622;28;20481;-68
2021/12/28 04:29:40;;;;;;;5.90;4.63;;;21.60;34.40;;;;;;5051889;28;20384;-69
2021/12/28 04:32:07;;;;;;;4.63;3.90;;;21.50;34.40;;;;;;5051864;28;20413;-68
2021/12/28 04:34:33;;;;;;;5.30;4.15;;;21.60;34.40;;;;;;5051384;28;20381;-68
2021/12/28 04:36:58;;;;;;;5.05;3.92;;;21.60;34.40;;;;;;5051858;28;20893;-68
2021/12/28 04:39:24;;;;;;;4.38;3.83;;;21.50;34.30;;;;;;5051857;28;20449;-68
2021/12/28 04:41:50;;;;;;;4.43;3.70;;;21.60;34.40;;;;;;5051475;28;20497;-68
2021/12/28 04:44:22;;;;;;;4.97;3.70;;;21.50;34.40;;;;;;5050759;28;20416;-68
2021/12/28 04:46:48;;;;;;;4.65;3.63;;;21.50;34.40;;;;;;5051624;28;20424;-68
2021/12/28 04:49:15;;;;;;;4.73;3.80;;;21.50;34.40;;;;;;5051721;28;20862;-68
2021/12/28 04:51:41;;;;;;;4.60;3.60;;;21.50;34.40;;;;;;5051694;28;20390;-67
2021/12/28 04:54:11;;;;;;;4.40;3.90;;;21.50;34.40;;;;;;5051362;28;20472;-68
2021/12/28 04:56:37;;;;;;;4.60;3.50;;;21.50;34.40;;;;;;5051304;28;20389;-68
2021/12/28 04:59:03;;;;;;;4.20;3.38;;;21.50;34.40;;;;;;5051449;28;20940;-69
2021/12/28 05:01:29;;;;;;;4.22;3.50;;;21.50;34.40;;;;;;5051202;28;20503;-68
2021/12/28 05:03:55;;;;;;;3.80;3.30;;;21.50;34.40;;;;;;5051393;28;20393;-68
2021/12/28 05:06:20;;;;;;;4.53;3.70;;;21.50;34.30;;;;;;5049873;28;20381;-68
2021/12/28 05:08:46;;;;;;;3.90;3.22;;;21.50;34.40;;;;;;5051191;28;20749;-68
2021/12/28 05:11:12;;;;;;;4.25;3.50;;;21.50;34.30;;;;;;5051296;28;20391;-69
2021/12/28 05:13:37;;;;;;;4.07;3.55;;;21.50;34.40;;;;;;5050527;28;20443;-68
2021/12/28 05:16:03;;;;;;;3.63;3.07;;;21.50;34.40;;;;;;5051333;28;20730;-68
2021/12/28 05:18:29;;;;;;;4.40;3.25;;;21.50;34.40;;;;;;5050787;28;20393;-68
2021/12/28 05:20:54;;;;;;;4.00;3.10;;;21.50;34.30;;;;;;5051174;28;20433;-68
2021/12/28 05:23:20;;;;;;;3.80;3.03;;;21.50;34.40;;;;;;5051359;28;20381;-68
2021/12/28 05:25:46;;;;;;;3.50;3.10;;;21.50;34.40;;;;;;5051367;28;20392;-68
2021/12/28 05:28:13;;;;;;;3.67;3.20;;;21.50;34.50;;;;;;5033121;28;20408;-68
2021/12/28 05:30:38;;;;;;;3.42;3.00;;;21.50;34.40;;;;;;5050746;28;20482;-68
2021/12/28 05:33:04;;;;;;;3.75;2.92;;;21.50;34.40;;;;;;5051148;28;20424;-67
2021/12/28 05:35:30;;;;;;;3.40;2.80;;;21.50;34.40;;;;;;5051143;28;20439;-67
2021/12/28 05:37:55;;;;;;;3.50;2.75;;;21.40;34.40;;;;;;5051071;28;20392;-68
2021/12/28 05:40:21;;;;;;;3.90;2.70;;;21.40;34.40;;;;;;5050840;28;20475;-67
2021/12/28 05:42:47;;;;;;;3.05;2.70;;;21.40;34.40;;;;;;5050669;28;20414;-67
2021/12/28 05:45:14;;;;;;;3.80;3.00;;;21.40;34.30;;;;;;5051195;28;20469;-68
2021/12/28 05:47:40;;;;;;;4.20;3.08;;;21.40;34.30;;;;;;5051013;28;20745;-67
2021/12/28 05:50:09;;;;;;;3.45;2.70;;;21.40;34.30;;;;;;5050977;28;20476;-67
2021/12/28 05:52:35;;;;;;;2.97;2.58;;;21.40;34.40;;;;;;5032721;28;20389;-68
2021/12/28 05:55:01;;;;;;;3.53;2.97;;;21.40;34.40;;;;;;5050934;28;20377;-68
2021/12/28 05:57:27;;;;;;;3.22;2.65;;;21.40;34.30;;;;;;5050772;28;20845;-68
2021/12/28 05:59:53;;;;;;;3.57;2.70;;;21.40;34.30;;;;;;5050063;28;20451;-68
2021/12/28 06:02:18;;;;;;;2.65;2.40;;;21.40;34.40;;;;;;5050545;28;20390;-68
2021/12/28 06:04:44;;;;;;;2.80;2.47;;;21.40;34.30;;;;;;5050712;28;20373;-68
2021/12/28 06:07:10;;;;;;;4.40;2.80;;;21.40;34.30;;;;;;5050935;28;20437;-68
2021/12/28 06:09:35;;;;;;;3.43;2.37;;;21.30;34.30;;;;;;5050843;28;20476;-69
2021/12/28 06:12:01;;;;;;;3.40;2.60;;;21.30;34.30;;;;;;5050834;28;20464;-68
2021/12/28 06:14:27;;;;;;;3.07;2.40;;;21.30;34.40;;;;;;5050412;28;20382;-68
2021/12/28 06:16:53;;;;;;;3.28;2.45;;;21.30;34.40;;;;;;5050761;28;20389;-68
2021/12/28 06:19:19;;;;;;;3.20;2.22;;;21.40;34.40;;;;;;5050784;28;20393;-68
2021/12/28 06:21:45;;;;;;;2.73;2.23;;;21.40;34.40;;;;;;5050712;28;20778;-68
2021/12/28 06:24:10;;;;;;;4.50;2.28;;;21.40;34.40;;;;;;5051010;28;20385;-68
2021/12/28 06:26:36;;;;;;;3.30;2.40;;;21.30;34.50;;;;;;5035732;28;20904;-68
2021/12/28 06:29:05;;;;;;;6.50;2.10;;;21.40;34.50;;;;;;5054313;28;20391;-70
2021/12/28 06:31:31;;;;;;;4.38;3.10;;;21.50;34.30;;;;;;5056457;28;20386;-69
2021/12/28 06:33:58;;;;;;;5.00;2.30;;;21.60;35.50;;;;;;5055040;28;20392;-73
2021/12/28 06:36:24;;;;;;;4.13;2.00;;;21.60;33.40;;;;;;5055712;28;20389;-68
2021/12/28 06:38:51;;;;;;;5.55;2.35;;;21.40;34.40;;;;;;5054690;28;20388;-74
2021/12/28 06:41:16;;;;;;;5.22;2.28;;;21.30;34.40;;;;;;5057146;28;20443;-71
2021/12/28 06:43:42;;;;;;;10.60;2.28;;;21.30;34.50;;;;;;5053903;28;20489;-68
2021/12/28 06:46:08;;;;;;;4.30;2.17;;;21.30;34.90;;;;;;5036282;28;20441;-67
2021/12/28 06:48:34;;;;;;;4.60;2.00;;;21.20;35.10;;;;;;5053469;28;20381;-68
2021/12/28 06:51:00;;;;;;;2.77;1.93;;;21.20;35.40;;;;;;5054139;28;20784;-69
2021/12/28 06:53:25;;;;;;;4.45;2.25;;;21.20;35.50;;;;;;5054274;28;20377;-68
2021/12/28 06:55:51;;;;;;;5.47;2.42;;;21.20;35.50;;;;;;5053874;28;20394;-68
2021/12/28 06:58:17;;;;;;;5.43;2.27;;;21.20;35.30;;;;;;5053822;28;20393;-68
2021/12/28 07:00:43;;;;;;;3.55;1.90;;;21.20;35.30;;;;;;5053674;28;20511;-68
2021/12/28 07:03:08;;;;;;;3.33;1.80;;;21.20;35.40;;;;;;5052289;28;20448;-68
2021/12/28 07:05:34;;;;;;;3.72;2.20;;;21.20;35.30;;;;;;5054033;28;20404;-68
2021/12/28 07:08:00;;;;;;;3.28;1.95;;;21.20;35.70;;;;;;5053989;28;20731;-68
2021/12/28 07:10:26;;;;;;;5.10;1.80;;;21.20;35.60;;;;;;5053377;28;20877;-68
2021/12/28 07:12:52;;;;;;;3.50;1.70;;;21.20;35.80;;;;;;5052687;28;20399;-72
2021/12/28 07:15:19;;;;;;;5.53;1.70;;;21.20;35.50;;;;;;5053296;28;20839;-68
2021/12/28 07:17:45;;;;;;;4.07;1.63;;;21.20;35.50;;;;;;5053261;28;20401;-69
2021/12/28 07:20:12;;;;;;;3.58;1.73;;;21.20;35.40;;;;;;5053702;28;20409;-68
2021/12/28 07:22:38;;;;;;;3.30;1.73;;;21.20;35.50;;;;;;5053036;28;20394;-69
2021/12/28 07:25:04;;;;;;;4.85;1.70;;;21.20;35.70;;;;;;5053115;28;20459;-68
2021/12/28 07:27:30;;;;;;;2.40;1.67;;;21.20;35.70;;;;;;5052232;28;20402;-68
2021/12/28 07:29:56;;;;;;;4.68;1.50;;;21.30;35.50;;;;;;5051504;28;20428;-69
2021/12/28 07:32:21;;;;;;;4.40;2.10;;;21.30;35.40;;;;;;5052950;28;20421;-68
2021/12/28 07:34:47;;;;;;;4.28;1.70;;;21.30;35.60;;;;;;5053550;28;20386;-69
2021/12/28 07:37:13;;;;;;;4.55;1.70;;;21.30;35.40;;;;;;5050887;28;20390;-68
2021/12/28 07:39:39;;;;;;;4.17;1.80;;;21.30;35.50;;;;;;5053127;28;20484;-68
2021/12/28 07:42:05;;;;;;;3.90;1.52;;;21.20;35.60;;;;;;5053052;28;20401;-69
2021/12/28 07:44:31;;;;;;;4.03;1.70;;;21.20;36.20;;;;;;5053512;28;20401;-68
2021/12/28 07:46:57;;;;;;;3.97;1.60;;;21.20;36.60;;;;;;5052815;28;20392;-69
2021/12/28 07:49:22;;;;;;;5.33;1.57;;;21.20;36.20;;;;;;5035432;28;20396;-71
2021/12/28 07:51:48;;;;;;;4.15;1.60;;;21.30;36.10;;;;;;5054012;28;20393;-71
2021/12/28 07:54:14;;;;;;;4.15;1.50;;;21.30;36.20;;;;;;5052611;28;20390;-69
2021/12/28 07:56:40;;;;;;;4.63;1.80;;;21.30;36.10;;;;;;5034868;28;20405;-69
2021/12/28 07:59:06;;;;;;;2.97;1.60;;;21.30;35.90;;;;;;5052607;28;20394;-68
2021/12/28 08:01:33;;;;;;;3.95;1.40;;;21.20;35.90;;;;;;5052385;28;20500;-69
2021/12/28 08:03:59;;;;;;;4.90;1.73;;;21.20;35.90;;;;;;5052562;28;20439;-69
2021/12/28 08:06:24;;;;;;;4.10;1.50;;;21.20;35.60;;;;;;5051034;28;20412;-69
2021/12/28 08:08:50;;;;;;;5.25;1.58;;;21.20;35.40;;;;;;5052371;28;20468;-69
2021/12/28 08:11:16;;;;;;;2.15;1.35;;;21.20;35.70;;;;;;5053347;28;20916;-70
2021/12/28 08:13:42;;;;;;;2.70;1.50;;;21.20;35.40;;;;;;5055001;28;20385;-69
2021/12/28 08:16:07;;;;;;;4.45;1.40;;;21.30;35.30;;;;;;5051523;28;20431;-69
2021/12/28 08:18:33;;;;;;;3.10;1.35;;;21.30;35.20;;;;;;5040667;28;20820;-70
2021/12/28 08:20:59;;;;;;;2.25;1.48;;;21.40;35.20;;;;;;5060735;28;20417;-70
2021/12/28 08:23:24;;;;;;;2.30;1.30;;;21.40;35.20;;;;;;5069540;28;20752;-69
2021/12/28 08:25:50;;;;;;;2.58;1.50;;;21.40;35.10;;;;;;5072233;28;20470;-69
2021/12/28 08:28:16;;;;;;;4.80;1.70;;;21.40;35.20;;;;;;5047163;28;20388;-68
2021/12/28 08:30:43;;;;;;;5.10;1.75;;;21.40;35.60;;;;;;5043500;28;20407;-69
2021/12/28 08:33:09;;;;;;;3.60;1.70;;;21.40;35.40;;;;;;5040982;28;20389;-69
2021/12/28 08:35:39;;;;;;;3.30;1.80;;;21.40;35.20;;;;;;5052936;28;20418;-69
2021/12/28 08:38:10;;;;;;;3.35;1.58;;;21.40;35.00;;;;;;5071753;28;20463;-70
2021/12/28 08:40:38;;;;;;;3.72;1.80;;;21.40;35.00;;;;;;5071193;28;20399;-69
2021/12/28 08:43:04;;;;;;;3.55;1.70;;;21.40;35.00;;;;;;5070455;28;20408;-69
2021/12/28 08:45:29;;;;;;;3.33;1.83;;;21.40;34.90;;;;;;5052705;28;20407;-69
2021/12/28 08:47:56;;;;;;;2.90;1.50;;;21.40;34.90;;;;;;5071616;28;20886;-69
2021/12/28 08:50:21;;;;;;;2.47;1.75;;;21.40;34.80;;;;;;5070514;28;20396;-70
2021/12/28 08:52:48;;;;;;;2.22;1.70;;;21.40;34.80;;;;;;5059815;28;20717;-69
2021/12/28 08:55:14;;;;;;;2.50;1.60;;;21.40;34.80;;;;;;5061737;28;20725;-69
2021/12/28 08:57:40;;;;;;;1.88;1.60;;;21.40;34.70;;;;;;5056749;28;20393;-68
2021/12/28 09:00:10;;;;;;;2.70;1.70;;;21.40;34.60;;;;;;5054049;28;20418;-69
2021/12/28 09:02:36;;;;;;;2.13;1.50;;;21.30;34.60;;;;;;5045315;28;20435;-69
2021/12/28 09:05:02;;;;;;;2.70;1.60;;;21.30;34.60;;;;;;5050897;28;20980;-69
2021/12/28 09:07:27;;;;;;;2.28;1.77;;;21.30;34.60;;;;;;5071006;28;20898;-69
2021/12/28 09:09:53;;;;;;;2.73;1.87;;;21.40;34.70;;;;;;5070474;28;20482;-76
2021/12/28 09:12:19;;;;;;;3.97;2.20;;;21.30;34.60;;;;;;5070159;28;20391;-68
2021/12/28 09:14:44;;;;;;;7.80;2.40;;;21.30;35.60;;;;;;5051661;28;20415;-75
2021/12/28 09:17:10;;;;;;;7.90;2.50;;;21.40;35.90;;;;;;5073273;28;20392;-69
2021/12/28 09:19:36;;;;;;;8.70;5.40;;;21.40;36.20;;;;;;5072502;28;20438;-71
2021/12/28 09:22:03;;;;;;;6.30;3.73;;;21.60;39.50;;;;;;5053639;28;20798;-75
2021/12/28 09:24:29;;;;;;;4.88;3.10;;;21.70;37.10;;;;;;5053306;28;20375;-69
2021/12/28 09:26:55;;;;;;;6.72;3.25;;;21.80;37.60;;;;;;5051685;28;20398;-68
2021/12/28 09:29:25;;;;;;;4.85;2.90;;;21.80;37.50;;;;;;5051791;28;21247;-68
2021/12/28 09:31:52;;;;;;;6.70;2.90;;;21.90;37.60;;;;;;5069720;28;20391;-68
2021/12/28 09:34:17;;;;;;;8.18;3.30;;;21.90;37.40;;;;;;5051852;28;20420;-68
2021/12/28 09:36:43;;;;;;;5.83;3.53;;;21.90;37.50;;;;;;5051103;28;20430;-69
2021/12/28 09:39:09;;;;;;;8.77;3.53;;;21.90;37.30;;;;;;5045400;28;20393;-69
2021/12/28 09:41:35;;;;;;;6.53;3.50;;;21.90;37.50;;;;;;5051866;28;20426;-68
2021/12/28 09:44:01;;;;;;;8.15;3.72;;;21.90;37.30;;;;;;5051900;28;20406;-69
2021/12/28 09:46:26;;;;;;;6.70;3.80;;;21.90;37.30;;;;;;5052211;28;20392;-69
2021/12/28 09:48:52;;;;;;;5.40;3.70;;;21.90;37.30;;;;;;5050939;28;20918;-70
2021/12/28 09:51:18;;;;;;;5.88;3.60;;;22.00;37.00;;;;;;5069723;28;20398;-68
2021/12/28 09:53:45;;;;;;;6.82;3.67;;;22.00;37.00;;;;;;5069589;28;20485;-68
2021/12/28 09:56:12;;;;;;;8.43;3.97;;;22.00;37.20;;;;;;5069663;28;20892;-68
2021/12/28 09:58:40;;;;;;;6.43;3.70;;;22.00;37.40;;;;;;5069319;28;20779;-67
2021/12/28 10:01:08;;;;;;;5.00;3.75;;;22.10;37.80;;;;;;5072819;28;20451;-68
2021/12/28 10:03:34;;;;;;;7.22;3.90;;;22.10;37.50;;;;;;5073435;28;20379;-69
2021/12/28 10:06:18;;;;;;;6.07;4.07;;;22.00;37.10;;;;;;5073043;28;20423;-69
2021/12/28 10:08:44;;;;;;;5.28;3.60;;;22.10;37.30;;;;;;5061621;28;20435;-68
2021/12/28 10:11:10;;;;;;;6.10;3.90;;;22.10;37.40;;;;;;5072451;28;20391;-70
2021/12/28 10:13:35;;;;;;;6.90;3.85;;;22.10;37.40;;;;;;5072875;28;20411;-70
2021/12/28 10:16:01;;;;;;;7.00;4.05;;;22.10;37.30;;;;;;5072391;28;20478;-68
2021/12/28 10:18:28;;;;;;;6.38;3.63;;;22.20;37.10;;;;;;5055035;28;20794;-70
2021/12/28 10:21:00;;;;;;;6.68;3.90;;;22.20;37.20;;;;;;5054643;28;20411;-69
2021/12/28 10:23:28;;;;;;;6.13;3.70;;;22.20;36.70;;;;;;5054823;28;20392;-69
2021/12/28 10:25:58;;;;;;;7.95;3.50;;;22.00;36.50;;;;;;5071525;28;20453;-68
2021/12/28 10:28:52;;;;;;;6.88;3.58;;;22.00;36.70;;;;;;5066766;28;20391;-70
2021/12/28 10:31:21;;;;;;;6.32;3.80;;;22.00;36.50;;;;;;5041905;28;20882;-70
2021/12/28 10:33:53;;;;;;;7.82;3.72;;;22.00;36.60;;;;;;5053868;28;20944;-71
2021/12/28 10:36:19;;;;;;;6.72;3.60;;;22.00;37.10;;;;;;5066403;28;20402;-71
2021/12/28 10:38:51;;;;;;;7.25;3.67;;;22.00;37.00;;;;;;5043339;28;20391;-71
2021/12/28 10:41:22;;;;;;;7.78;3.60;;;22.00;37.00;;;;;;5070983;28;20420;-70
2021/12/28 10:43:51;;;;;;;6.55;3.95;;;22.00;36.90;;;;;;5072385;28;20395;-69
2021/12/28 10:46:19;;;;;;;7.68;3.97;;;22.10;37.00;;;;;;5072555;28;20391;-71
2021/12/28 10:48:48;;;;;;;11.55;4.38;;;22.10;38.30;;;;;;5072143;28;20388;-69
2021/12/28 10:51:24;;;;;;;13.27;4.40;;;22.10;38.90;;;;;;5054285;28;20396;-70
2021/12/28 10:56:50;;;;;;;10.77;4.35;;;22.10;39.20;;;;;;5071842;28;20395;-69
2021/12/28 10:59:21;;;;;;;10.07;4.18;;;22.10;38.20;;;;;;5072449;28;20391;-69
2021/12/28 11:01:47;;;;;;;12.77;4.53;;;22.00;38.30;;;;;;5053850;28;20469;-68
2021/12/28 11:04:14;;;;;;;11.70;4.40;;;22.00;38.30;;;;;;5068377;28;20403;-68
2021/12/28 11:06:45;;;;;;;13.95;4.75;;;22.00;37.80;;;;;;5053210;28;20955;-69
2021/12/28 11:09:18;;;;;;;11.65;3.92;;;22.00;37.70;;;;;;5053972;28;20410;-69
2021/12/28 11:11:45;;;;;;;11.18;4.63;;;22.00;37.80;;;;;;5070550;28;20391;-68
2021/12/28 11:14:14;;;;;;;11.50;4.32;;;22.00;37.70;;;;;;5072108;28;20402;-69
2021/12/28 11:16:40;;;;;;;8.85;3.90;;;22.00;37.10;;;;;;5071758;28;20387;-70
2021/12/28 11:19:09;;;;;;;10.30;4.07;;;21.90;36.60;;;;;;5071609;28;20384;-69
2021/12/28 11:21:39;;;;;;;8.77;4.38;;;21.90;36.60;;;;;;5073240;28;20512;-68
2021/12/28 11:24:10;;;;;;;11.63;4.28;;;21.90;36.90;;;;;;5072931;28;20429;-69
2021/12/28 11:26:42;;;;;;;9.48;4.00;;;22.00;36.90;;;;;;5072691;28;20402;-68
2021/12/28 11:29:19;;;;;;;11.90;3.90;;;22.00;37.10;;;;;;5072964;28;20466;-69
2021/12/28 11:31:52;;;;;;;10.13;3.80;;;22.00;36.80;;;;;;5073213;28;20437;-68
2021/12/28 11:34:24;;;;;;;8.90;3.58;;;22.00;37.10;;;;;;5072705;28;20452;-68
2021/12/28 11:36:59;;;;;;;8.85;3.88;;;22.10;36.90;;;;;;5072382;28;20811;-69
2021/12/28 11:39:33;;;;;;;9.88;3.70;;;22.10;36.60;;;;;;5073001;28;20539;-68
2021/12/28 11:42:01;;;;;;;11.32;3.80;;;22.10;36.70;;;;;;5072513;28;20465;-68
2021/12/28 11:44:29;;;;;;;10.63;3.88;;;22.10;36.70;;;;;;5072884;28;20411;-68
2021/12/28 11:46:56;;;;;;;7.75;3.63;;;22.20;36.60;;;;;;5071950;28;20391;-70
2021/12/28 11:49:26;;;;;;;8.27;3.90;;;22.20;36.30;;;;;;5072560;28;20376;-69
2021/12/28 11:51:54;;;;;;;6.40;4.13;;;22.20;36.30;;;;;;5070571;28;20387;-69
2021/12/28 11:54:22;;;;;;;7.90;4.00;;;22.20;36.40;;;;;;5062986;28;20443;-68
2021/12/28 11:56:52;;;;;;;8.57;4.38;;;22.20;36.20;;;;;;5051744;28;20390;-69
2021/12/28 11:59:21;;;;;;;11.33;4.60;;;22.20;35.60;;;;;;5052570;28;20390;-68
2021/12/28 12:01:54;;;;;;;7.50;4.03;;;22.30;35.50;;;;;;5052315;28;20409;-68
2021/12/28 12:04:35;;;;;;;8.75;4.03;;;22.30;35.30;;;;;;5052073;28;20392;-68
2021/12/28 12:07:09;;;;;;;6.22;3.92;;;22.40;35.50;;;;;;5051985;28;20754;-69
2021/12/28 12:09:55;;;;;;;13.77;4.70;;;22.40;35.10;;;;;;5052436;28;20397;-68
2021/12/28 12:12:27;;;;;;;15.10;5.18;;;22.40;34.90;;;;;;5052026;28;20400;-70
2021/12/28 12:14:58;;;;;;;9.57;4.80;;;22.40;35.00;;;;;;5051695;28;20393;-68
2021/12/28 12:20:08;;;;;;;12.75;4.47;;;22.20;35.20;;;;;;5052329;28;20394;-69
2021/12/28 12:22:34;;;;;;;12.00;4.85;;;22.20;35.40;;;;;;5051811;28;20421;-69
2021/12/28 12:25:12;;;;;;;11.35;4.30;;;22.10;35.50;;;;;;5051215;28;20389;-69
2021/12/28 12:27:37;;;;;;;11.68;4.25;;;22.10;35.40;;;;;;5051642;28;20381;-69
2021/12/28 12:30:24;;;;;;;12.23;4.30;;;22.20;35.30;;;;;;5034197;28;20928;-69
2021/12/28 12:32:55;;;;;;;10.00;4.13;;;22.20;35.30;;;;;;5051021;28;20378;-71
2021/12/28 12:35:30;;;;;;;15.38;4.55;;;22.10;35.20;;;;;;5052306;28;20417;-71
2021/12/28 12:38:16;;;;;;;17.40;4.35;;;22.10;35.20;;;;;;5051580;28;20393;-71
2021/12/28 12:41:08;;;;;;;13.98;4.10;;;22.10;35.20;;;;;;5043799;28;20508;-69
2021/12/28 12:43:40;;;;;;;13.65;4.18;;;22.10;35.20;;;;;;5032128;28;20474;-68
2021/12/28 12:46:10;;;;;;;14.10;4.00;;;22.10;35.60;;;;;;5051721;28;20758;-69
2021/12/28 12:48:36;;;;;;;15.57;4.60;;;22.00;35.70;;;;;;5033489;28;20390;-68
2021/12/28 12:51:21;;;;;;;12.88;3.85;;;22.00;35.70;;;;;;5050817;28;20415;-69
2021/12/28 12:53:58;;;;;;;11.90;3.75;;;22.00;35.70;;;;;;5051382;28;20870;-70